sensor_id;sensor_type;location;lat;lon;timestamp;temperature;humidity
3701;DHT22;1866;48.374;10.766;2023-06-10T00:02:01;16.80;1.00
3701;DHT22;1866;48.374;10.766;2023-06-10T00:04:29;16.60;1.00
3701;DHT22;1866;48.374;10.766;2023-06-10T00:06:56;16.60;1.00
3701;DHT22;1866;48.374;10.766;2023-06-10T00:09:23;16.60;1.00
3701;DHT22;1866;48.374;10.766;2023-06-10T00:11:51;16.70;1.00
3701;DHT22;1866;48.374;10.766;2023-06-10T00:14:20;16.60;1.00
3701;DHT22;1866;48.374;10.766;2023-06-10T00:16:48;16.60;1.00
3701;DHT22;1866;48.374;10.766;2023-06-10T00:19:16;16.40;1.00
3701;DHT22;1866;48.374;10.766;2023-06-10T00:21:44;16.50;1.00
3701;DHT22;1866;48.374;10.766;2023-06-10T00:24:11;16.40;1.00
3701;DHT22;1866;48.374;10.766;2023-06-10T00:26:38;16.50;1.00
3701;DHT22;1866;48.374;10.766;2023-06-10T00:29:07;16.50;1.00
3701;DHT22;1866;48.374;10.766;2023-06-10T00:31:34;16.60;1.00
3701;DHT22;1866;48.374;10.766;2023-06-10T00:34:04;16.50;1.00
3701;DHT22;1866;48.374;10.766;2023-06-10T00:36:31;16.40;1.00
3701;DHT22;1866;48.374;10.766;2023-06-10T00:38:57;16.40;1.00
3701;DHT22;1866;48.374;10.766;2023-06-10T00:41:25;16.40;1.00
3701;DHT22;1866;48.374;10.766;2023-06-10T00:43:53;16.40;1.00
3701;DHT22;1866;48.374;10.766;2023-06-10T00:46:23;16.30;1.00
3701;DHT22;1866;48.374;10.766;2023-06-10T00:48:52;16.30;1.00
3701;DHT22;1866;48.374;10.766;2023-06-10T00:51:20;16.20;1.00
3701;DHT22;1866;48.374;10.766;2023-06-10T00:53:48;16.20;1.00
3701;DHT22;1866;48.374;10.766;2023-06-10T00:56:16;16.10;1.00
3701;DHT22;1866;48.374;10.766;2023-06-10T00:58:43;16.10;1.00
3701;DHT22;1866;48.374;10.766;2023-06-10T01:01:11;16.10;1.00
3701;DHT22;1866;48.374;10.766;2023-06-10T01:03:39;16.00;1.00
3701;DHT22;1866;48.374;10.766;2023-06-10T01:06:11;16.10;1.00
3701;DHT22;1866;48.374;10.766;2023-06-10T01:08:50;16.10;1.00
3701;DHT22;1866;48.374;10.766;2023-06-10T01:11:25;16.10;1.00
3701;DHT22;1866;48.374;10.766;2023-06-10T01:13:55;16.00;1.00
3701;DHT22;1866;48.374;10.766;2023-06-10T01:16:25;16.00;1.00
3701;DHT22;1866;48.374;10.766;2023-06-10T01:18:53;16.00;1.00
3701;DHT22;1866;48.374;10.766;2023-06-10T01:21:22;16.00;1.00
3701;DHT22;1866;48.374;10.766;2023-06-10T01:23:51;16.00;1.00
3701;DHT22;1866;48.374;10.766;2023-06-10T01:26:20;16.00;1.00
3701;DHT22;1866;48.374;10.766;2023-06-10T01:28:51;16.10;1.00
3701;DHT22;1866;48.374;10.766;2023-06-10T01:31:30;16.10;1.00
3701;DHT22;1866;48.374;10.766;2023-06-10T01:34:00;16.10;1.00
3701;DHT22;1866;48.374;10.766;2023-06-10T01:36:31;16.00;1.00
3701;DHT22;1866;48.374;10.766;2023-06-10T01:38:59;16.00;1.00
3701;DHT22;1866;48.374;10.766;2023-06-10T01:41:27;16.10;1.00
3701;DHT22;1866;48.374;10.766;2023-06-10T01:43:55;15.90;1.00
3701;DHT22;1866;48.374;10.766;2023-06-10T01:46:25;15.90;1.00
3701;DHT22;1866;48.374;10.766;2023-06-10T01:48:52;15.90;1.00
3701;DHT22;1866;48.374;10.766;2023-06-10T01:51:18;15.90;1.00
3701;DHT22;1866;48.374;10.766;2023-06-10T01:53:47;15.90;1.00
3701;DHT22;1866;48.374;10.766;2023-06-10T01:56:14;15.90;1.00
3701;DHT22;1866;48.374;10.766;2023-06-10T01:58:44;15.80;1.00
3701;DHT22;1866;48.374;10.766;2023-06-10T02:01:11;15.80;1.00
3701;DHT22;1866;48.374;10.766;2023-06-10T02:03:38;15.70;1.00
3701;DHT22;1866;48.374;10.766;2023-06-10T02:06:05;15.70;1.00
3701;DHT22;1866;48.374;10.766;2023-06-10T02:08:32;15.70;1.00
3701;DHT22;1866;48.374;10.766;2023-06-10T02:11:00;15.70;1.00
3701;DHT22;1866;48.374;10.766;2023-06-10T02:13:27;15.50;1.00
3701;DHT22;1866;48.374;10.766;2023-06-10T02:15:54;15.40;1.00
3701;DHT22;1866;48.374;10.766;2023-06-10T02:18:21;15.30;1.00
3701;DHT22;1866;48.374;10.766;2023-06-10T02:20:49;15.30;1.00
3701;DHT22;1866;48.374;10.766;2023-06-10T02:23:16;15.20;1.00
3701;DHT22;1866;48.374;10.766;2023-06-10T02:25:43;15.10;1.00
3701;DHT22;1866;48.374;10.766;2023-06-10T02:28:11;15.10;1.00
3701;DHT22;1866;48.374;10.766;2023-06-10T02:30:39;15.30;1.00
3701;DHT22;1866;48.374;10.766;2023-06-10T02:33:06;15.10;1.00
3701;DHT22;1866;48.374;10.766;2023-06-10T02:35:36;15.00;1.00
3701;DHT22;1866;48.374;10.766;2023-06-10T02:38:03;15.10;1.00
3701;DHT22;1866;48.374;10.766;2023-06-10T02:40:31;14.90;1.00
3701;DHT22;1866;48.374;10.766;2023-06-10T02:42:58;15.00;1.00
3701;DHT22;1866;48.374;10.766;2023-06-10T02:45:26;14.90;1.00
3701;DHT22;1866;48.374;10.766;2023-06-10T02:47:53;14.50;1.00
3701;DHT22;1866;48.374;10.766;2023-06-10T02:50:20;14.70;1.00
3701;DHT22;1866;48.374;10.766;2023-06-10T02:52:48;14.80;1.00
3701;DHT22;1866;48.374;10.766;2023-06-10T02:55:17;14.80;1.00
3701;DHT22;1866;48.374;10.766;2023-06-10T02:57:45;14.80;1.00
3701;DHT22;1866;48.374;10.766;2023-06-10T03:00:12;14.90;1.00
3701;DHT22;1866;48.374;10.766;2023-06-10T03:02:41;14.90;1.00
3701;DHT22;1866;48.374;10.766;2023-06-10T03:05:08;14.90;1.00
3701;DHT22;1866;48.374;10.766;2023-06-10T03:07:36;14.80;1.00
3701;DHT22;1866;48.374;10.766;2023-06-10T03:10:04;14.80;1.00
3701;DHT22;1866;48.374;10.766;2023-06-10T03:12:33;14.80;1.00
3701;DHT22;1866;48.374;10.766;2023-06-10T03:15:00;14.50;1.00
3701;DHT22;1866;48.374;10.766;2023-06-10T03:17:27;14.50;1.00
3701;DHT22;1866;48.374;10.766;2023-06-10T03:19:55;14.50;1.00
3701;DHT22;1866;48.374;10.766;2023-06-10T03:22:24;14.50;1.00
3701;DHT22;1866;48.374;10.766;2023-06-10T03:24:51;14.60;1.00
3701;DHT22;1866;48.374;10.766;2023-06-10T03:27:19;14.80;1.00
3701;DHT22;1866;48.374;10.766;2023-06-10T03:29:45;14.40;1.00
3701;DHT22;1866;48.374;10.766;2023-06-10T03:32:13;14.60;1.00
3701;DHT22;1866;48.374;10.766;2023-06-10T03:34:41;14.70;1.00
3701;DHT22;1866;48.374;10.766;2023-06-10T03:37:09;14.50;1.00
3701;DHT22;1866;48.374;10.766;2023-06-10T03:39:36;14.60;1.00
3701;DHT22;1866;48.374;10.766;2023-06-10T03:42:03;14.80;1.00
3701;DHT22;1866;48.374;10.766;2023-06-10T03:44:30;14.80;1.00
3701;DHT22;1866;48.374;10.766;2023-06-10T03:46:57;14.70;1.00
3701;DHT22;1866;48.374;10.766;2023-06-10T03:49:25;14.70;1.00
3701;DHT22;1866;48.374;10.766;2023-06-10T03:51:55;14.70;1.00
3701;DHT22;1866;48.374;10.766;2023-06-10T03:54:24;14.70;1.00
3701;DHT22;1866;48.374;10.766;2023-06-10T03:56:51;14.70;1.00
3701;DHT22;1866;48.374;10.766;2023-06-10T03:59:18;14.80;1.00
3701;DHT22;1866;48.374;10.766;2023-06-10T04:01:46;14.80;1.00
3701;DHT22;1866;48.374;10.766;2023-06-10T04:04:14;14.90;1.00
3701;DHT22;1866;48.374;10.766;2023-06-10T04:06:42;14.90;1.00
3701;DHT22;1866;48.374;10.766;2023-06-10T04:09:12;15.10;1.00
3701;DHT22;1866;48.374;10.766;2023-06-10T04:11:40;16.00;1.00
3701;DHT22;1866;48.374;10.766;2023-06-10T04:14:07;17.10;1.00
3701;DHT22;1866;48.374;10.766;2023-06-10T04:16:34;18.00;1.00
3701;DHT22;1866;48.374;10.766;2023-06-10T04:19:01;18.00;1.00
3701;DHT22;1866;48.374;10.766;2023-06-10T04:21:28;18.00;1.00
3701;DHT22;1866;48.374;10.766;2023-06-10T04:23:55;18.10;1.00
3701;DHT22;1866;48.374;10.766;2023-06-10T04:26:22;18.20;1.00
3701;DHT22;1866;48.374;10.766;2023-06-10T04:28:53;18.90;1.00
3701;DHT22;1866;48.374;10.766;2023-06-10T04:31:20;19.40;1.00
3701;DHT22;1866;48.374;10.766;2023-06-10T04:33:47;20.10;1.00
3701;DHT22;1866;48.374;10.766;2023-06-10T04:36:14;19.70;1.00
3701;DHT22;1866;48.374;10.766;2023-06-10T04:38:41;19.70;1.00
3701;DHT22;1866;48.374;10.766;2023-06-10T04:41:08;19.70;1.00
3701;DHT22;1866;48.374;10.766;2023-06-10T04:43:35;19.90;1.00
3701;DHT22;1866;48.374;10.766;2023-06-10T04:46:04;20.70;1.00
3701;DHT22;1866;48.374;10.766;2023-06-10T04:48:33;20.10;1.00
3701;DHT22;1866;48.374;10.766;2023-06-10T04:51:04;19.90;1.00
3701;DHT22;1866;48.374;10.766;2023-06-10T04:53:31;20.80;1.00
3701;DHT22;1866;48.374;10.766;2023-06-10T04:55:58;20.40;1.00
3701;DHT22;1866;48.374;10.766;2023-06-10T04:58:25;20.50;1.00
3701;DHT22;1866;48.374;10.766;2023-06-10T05:00:53;21.00;1.00
3701;DHT22;1866;48.374;10.766;2023-06-10T05:03:22;20.50;1.00
3701;DHT22;1866;48.374;10.766;2023-06-10T05:05:49;20.30;1.00
3701;DHT22;1866;48.374;10.766;2023-06-10T05:08:18;18.60;1.00
3701;DHT22;1866;48.374;10.766;2023-06-10T05:10:45;17.30;1.00
3701;DHT22;1866;48.374;10.766;2023-06-10T05:13:11;17.70;1.00
3701;DHT22;1866;48.374;10.766;2023-06-10T05:15:38;17.20;1.00
3701;DHT22;1866;48.374;10.766;2023-06-10T05:18:05;17.20;1.00
3701;DHT22;1866;48.374;10.766;2023-06-10T05:20:34;17.10;1.00
3701;DHT22;1866;48.374;10.766;2023-06-10T05:23:01;17.30;1.00
3701;DHT22;1866;48.374;10.766;2023-06-10T05:25:30;17.20;1.00
3701;DHT22;1866;48.374;10.766;2023-06-10T05:27:58;17.40;1.00
3701;DHT22;1866;48.374;10.766;2023-06-10T05:30:25;17.30;1.00
3701;DHT22;1866;48.374;10.766;2023-06-10T05:32:52;17.30;1.00
3701;DHT22;1866;48.374;10.766;2023-06-10T05:35:19;17.00;1.00
3701;DHT22;1866;48.374;10.766;2023-06-10T05:37:48;17.10;1.00
3701;DHT22;1866;48.374;10.766;2023-06-10T05:40:15;17.80;1.00
3701;DHT22;1866;48.374;10.766;2023-06-10T05:42:42;17.80;1.00
3701;DHT22;1866;48.374;10.766;2023-06-10T05:45:11;17.80;1.00
3701;DHT22;1866;48.374;10.766;2023-06-10T05:47:39;17.70;1.00
3701;DHT22;1866;48.374;10.766;2023-06-10T05:50:08;17.80;1.00
3701;DHT22;1866;48.374;10.766;2023-06-10T05:52:35;17.60;1.00
3701;DHT22;1866;48.374;10.766;2023-06-10T05:55:09;17.70;1.00
3701;DHT22;1866;48.374;10.766;2023-06-10T05:57:37;17.90;1.00
3701;DHT22;1866;48.374;10.766;2023-06-10T06:00:05;18.40;1.00
3701;DHT22;1866;48.374;10.766;2023-06-10T06:02:34;18.20;1.00
3701;DHT22;1866;48.374;10.766;2023-06-10T06:05:03;18.20;1.00
3701;DHT22;1866;48.374;10.766;2023-06-10T06:07:30;17.90;1.00
3701;DHT22;1866;48.374;10.766;2023-06-10T06:09:57;18.10;1.00
3701;DHT22;1866;48.374;10.766;2023-06-10T06:12:25;18.40;1.00
3701;DHT22;1866;48.374;10.766;2023-06-10T06:14:52;18.70;1.00
3701;DHT22;1866;48.374;10.766;2023-06-10T06:17:19;18.50;1.00
3701;DHT22;1866;48.374;10.766;2023-06-10T06:19:46;18.60;1.00
3701;DHT22;1866;48.374;10.766;2023-06-10T06:22:13;18.50;1.00
3701;DHT22;1866;48.374;10.766;2023-06-10T06:24:40;19.20;1.00
3701;DHT22;1866;48.374;10.766;2023-06-10T06:27:07;19.30;1.00
3701;DHT22;1866;48.374;10.766;2023-06-10T06:29:36;19.00;1.00
3701;DHT22;1866;48.374;10.766;2023-06-10T06:32:03;19.30;1.00
3701;DHT22;1866;48.374;10.766;2023-06-10T06:34:30;19.40;1.00
3701;DHT22;1866;48.374;10.766;2023-06-10T06:36:57;19.70;1.00
3701;DHT22;1866;48.374;10.766;2023-06-10T06:39:24;19.40;1.00
3701;DHT22;1866;48.374;10.766;2023-06-10T06:41:51;19.10;1.00
3701;DHT22;1866;48.374;10.766;2023-06-10T06:44:18;19.50;1.00
3701;DHT22;1866;48.374;10.766;2023-06-10T06:46:46;19.60;1.00
3701;DHT22;1866;48.374;10.766;2023-06-10T06:49:13;19.40;1.00
3701;DHT22;1866;48.374;10.766;2023-06-10T06:51:40;19.30;1.00
3701;DHT22;1866;48.374;10.766;2023-06-10T06:54:07;19.20;1.00
3701;DHT22;1866;48.374;10.766;2023-06-10T06:56:34;19.40;1.00
3701;DHT22;1866;48.374;10.766;2023-06-10T06:59:01;19.60;1.00
3701;DHT22;1866;48.374;10.766;2023-06-10T07:01:28;19.90;1.00
3701;DHT22;1866;48.374;10.766;2023-06-10T07:03:57;20.00;1.00
3701;DHT22;1866;48.374;10.766;2023-06-10T07:06:24;19.50;1.00
3701;DHT22;1866;48.374;10.766;2023-06-10T07:08:51;19.70;1.00
3701;DHT22;1866;48.374;10.766;2023-06-10T07:11:18;20.10;1.00
3701;DHT22;1866;48.374;10.766;2023-06-10T07:13:47;19.90;1.00
3701;DHT22;1866;48.374;10.766;2023-06-10T07:16:14;19.60;1.00
3701;DHT22;1866;48.374;10.766;2023-06-10T07:18:40;19.90;1.00
3701;DHT22;1866;48.374;10.766;2023-06-10T07:21:09;19.80;1.00
3701;DHT22;1866;48.374;10.766;2023-06-10T07:23:36;19.80;1.00
3701;DHT22;1866;48.374;10.766;2023-06-10T07:26:03;20.10;1.00
3701;DHT22;1866;48.374;10.766;2023-06-10T07:28:30;20.30;1.00
3701;DHT22;1866;48.374;10.766;2023-06-10T07:30:58;19.80;1.00
3701;DHT22;1866;48.374;10.766;2023-06-10T07:33:25;19.90;1.00
3701;DHT22;1866;48.374;10.766;2023-06-10T07:35:52;20.10;1.00
3701;DHT22;1866;48.374;10.766;2023-06-10T07:38:21;20.40;1.00
3701;DHT22;1866;48.374;10.766;2023-06-10T07:40:48;20.60;1.00
3701;DHT22;1866;48.374;10.766;2023-06-10T07:43:15;20.60;1.00
3701;DHT22;1866;48.374;10.766;2023-06-10T07:45:42;20.70;1.00
3701;DHT22;1866;48.374;10.766;2023-06-10T07:48:10;20.80;1.00
3701;DHT22;1866;48.374;10.766;2023-06-10T07:50:37;21.20;1.00
3701;DHT22;1866;48.374;10.766;2023-06-10T07:53:04;20.90;1.00
3701;DHT22;1866;48.374;10.766;2023-06-10T07:55:32;21.00;1.00
3701;DHT22;1866;48.374;10.766;2023-06-10T07:58:00;20.70;1.00
3701;DHT22;1866;48.374;10.766;2023-06-10T08:00:27;20.90;1.00
3701;DHT22;1866;48.374;10.766;2023-06-10T08:02:54;20.70;1.00
3701;DHT22;1866;48.374;10.766;2023-06-10T08:05:21;20.50;1.00
3701;DHT22;1866;48.374;10.766;2023-06-10T08:07:48;20.20;1.00
3701;DHT22;1866;48.374;10.766;2023-06-10T08:10:15;20.40;1.00
3701;DHT22;1866;48.374;10.766;2023-06-10T08:12:44;20.50;1.00
3701;DHT22;1866;48.374;10.766;2023-06-10T08:15:11;20.80;1.00
3701;DHT22;1866;48.374;10.766;2023-06-10T08:17:37;20.90;1.00
3701;DHT22;1866;48.374;10.766;2023-06-10T08:20:06;21.50;1.00
3701;DHT22;1866;48.374;10.766;2023-06-10T08:22:33;21.30;1.00
3701;DHT22;1866;48.374;10.766;2023-06-10T08:25:00;21.40;1.00
3701;DHT22;1866;48.374;10.766;2023-06-10T08:27:29;21.30;1.00
3701;DHT22;1866;48.374;10.766;2023-06-10T08:29:57;21.30;1.00
3701;DHT22;1866;48.374;10.766;2023-06-10T08:32:26;21.00;1.00
3701;DHT22;1866;48.374;10.766;2023-06-10T08:34:53;20.90;1.00
3701;DHT22;1866;48.374;10.766;2023-06-10T08:37:21;20.90;1.00
3701;DHT22;1866;48.374;10.766;2023-06-10T08:39:48;21.00;1.00
3701;DHT22;1866;48.374;10.766;2023-06-10T08:42:22;20.80;1.00
3701;DHT22;1866;48.374;10.766;2023-06-10T08:44:53;20.90;1.00
3701;DHT22;1866;48.374;10.766;2023-06-10T08:47:24;21.10;1.00
3701;DHT22;1866;48.374;10.766;2023-06-10T08:49:53;21.70;1.00
3701;DHT22;1866;48.374;10.766;2023-06-10T08:52:22;21.90;1.00
3701;DHT22;1866;48.374;10.766;2023-06-10T08:54:54;21.40;1.00
3701;DHT22;1866;48.374;10.766;2023-06-10T08:57:23;21.80;1.00
3701;DHT22;1866;48.374;10.766;2023-06-10T08:59:52;21.50;1.00
3701;DHT22;1866;48.374;10.766;2023-06-10T09:02:20;22.10;1.00
3701;DHT22;1866;48.374;10.766;2023-06-10T09:04:49;22.00;1.00
3701;DHT22;1866;48.374;10.766;2023-06-10T09:07:17;22.00;1.00
3701;DHT22;1866;48.374;10.766;2023-06-10T09:09:44;21.80;1.00
3701;DHT22;1866;48.374;10.766;2023-06-10T09:12:13;21.60;1.00
3701;DHT22;1866;48.374;10.766;2023-06-10T09:14:40;21.90;1.00
3701;DHT22;1866;48.374;10.766;2023-06-10T09:17:07;22.00;1.00
3701;DHT22;1866;48.374;10.766;2023-06-10T09:19:35;22.20;1.00
3701;DHT22;1866;48.374;10.766;2023-06-10T09:22:04;22.10;1.00
3701;DHT22;1866;48.374;10.766;2023-06-10T09:24:31;22.30;1.00
3701;DHT22;1866;48.374;10.766;2023-06-10T09:27:03;22.80;1.00
3701;DHT22;1866;48.374;10.766;2023-06-10T09:29:30;22.20;1.00
3701;DHT22;1866;48.374;10.766;2023-06-10T09:31:57;22.40;1.00
3701;DHT22;1866;48.374;10.766;2023-06-10T09:34:25;22.10;1.00
3701;DHT22;1866;48.374;10.766;2023-06-10T09:36:53;22.10;1.00
3701;DHT22;1866;48.374;10.766;2023-06-10T09:39:22;22.00;1.00
3701;DHT22;1866;48.374;10.766;2023-06-10T09:41:49;22.10;1.00
3701;DHT22;1866;48.374;10.766;2023-06-10T09:44:19;22.30;1.00
3701;DHT22;1866;48.374;10.766;2023-06-10T09:46:49;22.30;1.00
3701;DHT22;1866;48.374;10.766;2023-06-10T09:49:17;22.50;1.00
3701;DHT22;1866;48.374;10.766;2023-06-10T09:51:51;22.60;1.00
3701;DHT22;1866;48.374;10.766;2023-06-10T09:54:18;22.40;1.00
3701;DHT22;1866;48.374;10.766;2023-06-10T09:56:48;22.70;1.00
3701;DHT22;1866;48.374;10.766;2023-06-10T09:59:16;22.60;1.00
3701;DHT22;1866;48.374;10.766;2023-06-10T10:01:54;22.40;1.00
3701;DHT22;1866;48.374;10.766;2023-06-10T10:04:23;22.60;1.00
3701;DHT22;1866;48.374;10.766;2023-06-10T10:06:50;22.10;1.00
3701;DHT22;1866;48.374;10.766;2023-06-10T10:09:17;22.60;1.00
3701;DHT22;1866;48.374;10.766;2023-06-10T10:11:44;22.80;1.00
3701;DHT22;1866;48.374;10.766;2023-06-10T10:14:16;22.40;1.00
3701;DHT22;1866;48.374;10.766;2023-06-10T10:16:43;23.20;1.00
3701;DHT22;1866;48.374;10.766;2023-06-10T10:19:13;23.00;1.00
3701;DHT22;1866;48.374;10.766;2023-06-10T10:21:47;23.20;1.00
3701;DHT22;1866;48.374;10.766;2023-06-10T10:24:20;22.90;1.00
3701;DHT22;1866;48.374;10.766;2023-06-10T10:26:49;22.80;1.00
3701;DHT22;1866;48.374;10.766;2023-06-10T10:29:22;22.80;1.00
3701;DHT22;1866;48.374;10.766;2023-06-10T10:31:51;22.30;1.00
3701;DHT22;1866;48.374;10.766;2023-06-10T10:34:32;22.10;1.00
3701;DHT22;1866;48.374;10.766;2023-06-10T10:37:04;22.00;1.00
3701;DHT22;1866;48.374;10.766;2023-06-10T10:39:33;22.00;1.00
3701;DHT22;1866;48.374;10.766;2023-06-10T10:42:00;21.90;1.00
3701;DHT22;1866;48.374;10.766;2023-06-10T10:44:31;21.80;1.00
3701;DHT22;1866;48.374;10.766;2023-06-10T10:47:02;21.70;1.00
3701;DHT22;1866;48.374;10.766;2023-06-10T10:49:30;21.70;1.00
3701;DHT22;1866;48.374;10.766;2023-06-10T10:51:58;21.80;1.00
3701;DHT22;1866;48.374;10.766;2023-06-10T10:54:29;21.90;1.00
3701;DHT22;1866;48.374;10.766;2023-06-10T10:57:15;22.40;1.00
3701;DHT22;1866;48.374;10.766;2023-06-10T10:59:54;22.70;1.00
3701;DHT22;1866;48.374;10.766;2023-06-10T11:02:35;22.90;1.00
3701;DHT22;1866;48.374;10.766;2023-06-10T11:05:04;23.00;1.00
3701;DHT22;1866;48.374;10.766;2023-06-10T11:07:32;23.20;1.00
3701;DHT22;1866;48.374;10.766;2023-06-10T11:10:00;22.80;1.00
3701;DHT22;1866;48.374;10.766;2023-06-10T11:12:41;22.60;1.00
3701;DHT22;1866;48.374;10.766;2023-06-10T11:15:12;22.70;1.00
3701;DHT22;1866;48.374;10.766;2023-06-10T11:18:06;22.40;1.00
3701;DHT22;1866;48.374;10.766;2023-06-10T11:20:59;22.90;1.00
3701;DHT22;1866;48.374;10.766;2023-06-10T11:23:33;23.00;1.00
3701;DHT22;1866;48.374;10.766;2023-06-10T11:26:10;23.60;1.00
3701;DHT22;1866;48.374;10.766;2023-06-10T11:28:37;23.70;1.00
3701;DHT22;1866;48.374;10.766;2023-06-10T11:31:06;23.80;1.00
3701;DHT22;1866;48.374;10.766;2023-06-10T11:33:33;23.90;1.00
3701;DHT22;1866;48.374;10.766;2023-06-10T11:36:00;23.60;1.00
3701;DHT22;1866;48.374;10.766;2023-06-10T11:38:29;23.10;1.00
3701;DHT22;1866;48.374;10.766;2023-06-10T11:40:59;22.90;1.00
3701;DHT22;1866;48.374;10.766;2023-06-10T11:43:26;22.80;1.00
3701;DHT22;1866;48.374;10.766;2023-06-10T11:45:54;22.70;1.00
3701;DHT22;1866;48.374;10.766;2023-06-10T11:48:23;23.20;1.00
3701;DHT22;1866;48.374;10.766;2023-06-10T11:50:52;23.00;1.00
3701;DHT22;1866;48.374;10.766;2023-06-10T11:53:19;23.10;1.00
3701;DHT22;1866;48.374;10.766;2023-06-10T11:55:47;23.10;1.00
3701;DHT22;1866;48.374;10.766;2023-06-10T11:58:17;23.10;1.00
3701;DHT22;1866;48.374;10.766;2023-06-10T12:00:45;23.30;1.00
3701;DHT22;1866;48.374;10.766;2023-06-10T12:03:13;23.70;1.00
3701;DHT22;1866;48.374;10.766;2023-06-10T12:05:54;23.40;1.00
3701;DHT22;1866;48.374;10.766;2023-06-10T12:08:21;23.00;1.00
3701;DHT22;1866;48.374;10.766;2023-06-10T12:10:48;22.90;1.00
3701;DHT22;1866;48.374;10.766;2023-06-10T12:13:16;23.10;1.00
3701;DHT22;1866;48.374;10.766;2023-06-10T12:15:43;22.70;1.00
3701;DHT22;1866;48.374;10.766;2023-06-10T12:18:16;22.60;1.00
3701;DHT22;1866;48.374;10.766;2023-06-10T12:20:45;22.60;1.00
3701;DHT22;1866;48.374;10.766;2023-06-10T12:23:15;22.70;1.00
3701;DHT22;1866;48.374;10.766;2023-06-10T12:25:50;22.90;1.00
3701;DHT22;1866;48.374;10.766;2023-06-10T12:28:20;23.00;1.00
3701;DHT22;1866;48.374;10.766;2023-06-10T12:30:48;22.80;1.00
3701;DHT22;1866;48.374;10.766;2023-06-10T12:33:18;22.90;1.00
3701;DHT22;1866;48.374;10.766;2023-06-10T12:35:51;22.60;1.00
3701;DHT22;1866;48.374;10.766;2023-06-10T12:38:21;22.80;1.00
3701;DHT22;1866;48.374;10.766;2023-06-10T12:40:50;22.60;1.00
3701;DHT22;1866;48.374;10.766;2023-06-10T12:43:19;23.00;1.00
3701;DHT22;1866;48.374;10.766;2023-06-10T12:45:47;23.10;1.00
3701;DHT22;1866;48.374;10.766;2023-06-10T12:48:18;23.00;1.00
3701;DHT22;1866;48.374;10.766;2023-06-10T12:50:52;23.50;1.00
3701;DHT22;1866;48.374;10.766;2023-06-10T12:53:21;23.20;1.00
3701;DHT22;1866;48.374;10.766;2023-06-10T12:55:48;23.10;1.00
3701;DHT22;1866;48.374;10.766;2023-06-10T12:58:15;23.40;1.00
3701;DHT22;1866;48.374;10.766;2023-06-10T13:00:42;23.50;1.00
3701;DHT22;1866;48.374;10.766;2023-06-10T13:03:10;23.60;1.00
3701;DHT22;1866;48.374;10.766;2023-06-10T13:05:37;23.80;1.00
3701;DHT22;1866;48.374;10.766;2023-06-10T13:08:06;23.20;1.00
3701;DHT22;1866;48.374;10.766;2023-06-10T13:10:36;23.20;1.00
3701;DHT22;1866;48.374;10.766;2023-06-10T13:13:03;23.50;1.00
3701;DHT22;1866;48.374;10.766;2023-06-10T13:15:31;23.70;1.00
3701;DHT22;1866;48.374;10.766;2023-06-10T13:18:01;23.80;1.00
3701;DHT22;1866;48.374;10.766;2023-06-10T13:20:29;23.60;1.00
3701;DHT22;1866;48.374;10.766;2023-06-10T13:22:56;23.80;1.00
3701;DHT22;1866;48.374;10.766;2023-06-10T13:25:24;24.00;1.00
3701;DHT22;1866;48.374;10.766;2023-06-10T13:27:51;23.50;1.00
3701;DHT22;1866;48.374;10.766;2023-06-10T13:30:18;23.50;1.00
3701;DHT22;1866;48.374;10.766;2023-06-10T13:32:45;23.70;1.00
3701;DHT22;1866;48.374;10.766;2023-06-10T13:35:12;23.70;1.00
3701;DHT22;1866;48.374;10.766;2023-06-10T13:37:39;23.70;1.00
3701;DHT22;1866;48.374;10.766;2023-06-10T13:40:07;23.40;1.00
3701;DHT22;1866;48.374;10.766;2023-06-10T13:42:36;23.40;1.00
3701;DHT22;1866;48.374;10.766;2023-06-10T13:45:04;23.60;1.00
3701;DHT22;1866;48.374;10.766;2023-06-10T13:47:31;23.70;1.00
3701;DHT22;1866;48.374;10.766;2023-06-10T13:49:58;23.40;1.00
3701;DHT22;1866;48.374;10.766;2023-06-10T13:52:27;23.30;1.00
3701;DHT22;1866;48.374;10.766;2023-06-10T13:54:54;23.60;1.00
3701;DHT22;1866;48.374;10.766;2023-06-10T13:57:21;23.60;1.00
3701;DHT22;1866;48.374;10.766;2023-06-10T13:59:49;23.60;1.00
3701;DHT22;1866;48.374;10.766;2023-06-10T14:02:17;23.70;1.00
3701;DHT22;1866;48.374;10.766;2023-06-10T14:04:44;23.60;1.00
3701;DHT22;1866;48.374;10.766;2023-06-10T14:07:12;23.60;1.00
3701;DHT22;1866;48.374;10.766;2023-06-10T14:09:40;23.80;1.00
3701;DHT22;1866;48.374;10.766;2023-06-10T14:12:07;24.00;1.00
3701;DHT22;1866;48.374;10.766;2023-06-10T14:14:35;24.40;1.00
3701;DHT22;1866;48.374;10.766;2023-06-10T14:17:04;23.70;1.00
3701;DHT22;1866;48.374;10.766;2023-06-10T14:19:31;23.60;1.00
3701;DHT22;1866;48.374;10.766;2023-06-10T14:21:58;23.50;1.00
3701;DHT22;1866;48.374;10.766;2023-06-10T14:24:25;23.80;1.00
3701;DHT22;1866;48.374;10.766;2023-06-10T14:26:52;23.90;1.00
3701;DHT22;1866;48.374;10.766;2023-06-10T14:29:19;23.70;1.00
3701;DHT22;1866;48.374;10.766;2023-06-10T14:31:46;23.90;1.00
3701;DHT22;1866;48.374;10.766;2023-06-10T14:34:14;24.20;1.00
3701;DHT22;1866;48.374;10.766;2023-06-10T14:36:41;23.80;1.00
3701;DHT22;1866;48.374;10.766;2023-06-10T14:39:08;24.00;1.00
3701;DHT22;1866;48.374;10.766;2023-06-10T14:41:35;24.30;1.00
3701;DHT22;1866;48.374;10.766;2023-06-10T14:44:02;23.90;1.00
3701;DHT22;1866;48.374;10.766;2023-06-10T14:46:29;24.10;1.00
3701;DHT22;1866;48.374;10.766;2023-06-10T14:48:56;23.90;1.00
3701;DHT22;1866;48.374;10.766;2023-06-10T14:51:26;23.70;1.00
3701;DHT22;1866;48.374;10.766;2023-06-10T14:53:53;23.70;1.00
3701;DHT22;1866;48.374;10.766;2023-06-10T14:56:19;24.00;1.00
3701;DHT22;1866;48.374;10.766;2023-06-10T14:58:46;24.00;1.00
3701;DHT22;1866;48.374;10.766;2023-06-10T15:01:13;24.00;1.00
3701;DHT22;1866;48.374;10.766;2023-06-10T15:03:40;24.00;1.00
3701;DHT22;1866;48.374;10.766;2023-06-10T15:06:07;23.70;1.00
3701;DHT22;1866;48.374;10.766;2023-06-10T15:08:35;24.10;1.00
3701;DHT22;1866;48.374;10.766;2023-06-10T15:11:03;24.00;1.00
3701;DHT22;1866;48.374;10.766;2023-06-10T15:13:29;24.30;1.00
3701;DHT22;1866;48.374;10.766;2023-06-10T15:15:56;24.40;1.00
3701;DHT22;1866;48.374;10.766;2023-06-10T15:18:23;24.20;1.00
3701;DHT22;1866;48.374;10.766;2023-06-10T15:20:50;24.00;1.00
3701;DHT22;1866;48.374;10.766;2023-06-10T15:23:17;23.90;1.00
3701;DHT22;1866;48.374;10.766;2023-06-10T15:25:45;24.30;1.00
3701;DHT22;1866;48.374;10.766;2023-06-10T15:28:13;24.50;1.00
3701;DHT22;1866;48.374;10.766;2023-06-10T15:30:40;24.70;1.00
3701;DHT22;1866;48.374;10.766;2023-06-10T15:33:07;24.80;1.00
3701;DHT22;1866;48.374;10.766;2023-06-10T15:35:34;24.50;1.00
3701;DHT22;1866;48.374;10.766;2023-06-10T15:38:04;24.30;1.00
3701;DHT22;1866;48.374;10.766;2023-06-10T15:40:31;23.90;1.00
3701;DHT22;1866;48.374;10.766;2023-06-10T15:43:00;23.60;1.00
3701;DHT22;1866;48.374;10.766;2023-06-10T15:45:28;23.60;1.00
3701;DHT22;1866;48.374;10.766;2023-06-10T15:47:55;24.10;1.00
3701;DHT22;1866;48.374;10.766;2023-06-10T15:50:22;24.50;1.00
3701;DHT22;1866;48.374;10.766;2023-06-10T15:52:49;24.80;1.00
3701;DHT22;1866;48.374;10.766;2023-06-10T15:55:16;24.40;1.00
3701;DHT22;1866;48.374;10.766;2023-06-10T15:57:43;24.10;1.00
3701;DHT22;1866;48.374;10.766;2023-06-10T16:00:13;24.00;1.00
3701;DHT22;1866;48.374;10.766;2023-06-10T16:02:40;24.30;1.00
3701;DHT22;1866;48.374;10.766;2023-06-10T16:05:07;24.40;1.00
3701;DHT22;1866;48.374;10.766;2023-06-10T16:07:34;24.00;1.00
3701;DHT22;1866;48.374;10.766;2023-06-10T16:10:03;23.90;1.00